sensor_id;sensor_type;location;lat;lon;timestamp;P1;durP1;ratioP1;P2;durP2;ratioP2
41255;SDS011;26989;45.524;10.938;2024-02-26T00:00:59;5.35;;;3.50;;
41255;SDS011;26989;45.524;10.938;2024-02-26T00:03:26;8.27;;;3.55;;
41255;SDS011;26989;45.524;10.938;2024-02-26T00:05:53;7.22;;;3.78;;
41255;SDS011;26989;45.524;10.938;2024-02-26T00:08:20;6.93;;;4.28;;
41255;SDS011;26989;45.524;10.938;2024-02-26T00:10:47;6.07;;;4.15;;
41255;SDS011;26989;45.524;10.938;2024-02-26T00:13:14;9.77;;;5.10;;
41255;SDS011;26989;45.524;10.938;2024-02-26T00:15:41;6.82;;;4.80;;
41255;SDS011;26989;45.524;10.938;2024-02-26T00:18:07;8.07;;;5.40;;
41255;SDS011;26989;45.524;10.938;2024-02-26T00:20:34;8.32;;;5.18;;
41255;SDS011;26989;45.524;10.938;2024-02-26T00:23:02;8.93;;;5.40;;
41255;SDS011;26989;45.524;10.938;2024-02-26T00:25:29;7.88;;;5.15;;
41255;SDS011;26989;45.524;10.938;2024-02-26T00:27:56;9.27;;;5.45;;
41255;SDS011;26989;45.524;10.938;2024-02-26T00:30:24;9.38;;;5.03;;
41255;SDS011;26989;45.524;10.938;2024-02-26T00:32:51;7.82;;;5.32;;
41255;SDS011;26989;45.524;10.938;2024-02-26T00:35:18;8.23;;;5.43;;
41255;SDS011;26989;45.524;10.938;2024-02-26T00:37:46;8.35;;;5.13;;
41255;SDS011;26989;45.524;10.938;2024-02-26T00:40:13;10.63;;;5.93;;
41255;SDS011;26989;45.524;10.938;2024-02-26T00:42:40;11.05;;;5.97;;
41255;SDS011;26989;45.524;10.938;2024-02-26T00:45:12;9.43;;;4.83;;
41255;SDS011;26989;45.524;10.938;2024-02-26T00:47:39;8.18;;;4.88;;
41255;SDS011;26989;45.524;10.938;2024-02-26T00:50:10;8.48;;;4.82;;
41255;SDS011;26989;45.524;10.938;2024-02-26T00:52:37;9.35;;;5.70;;
41255;SDS011;26989;45.524;10.938;2024-02-26T00:55:05;11.68;;;5.85;;
41255;SDS011;26989;45.524;10.938;2024-02-26T00:57:32;6.60;;;4.72;;
41255;SDS011;26989;45.524;10.938;2024-02-26T00:59:59;11.50;;;4.55;;
41255;SDS011;26989;45.524;10.938;2024-02-26T01:02:27;10.98;;;4.70;;
41255;SDS011;26989;45.524;10.938;2024-02-26T01:04:54;8.38;;;3.97;;
41255;SDS011;26989;45.524;10.938;2024-02-26T01:07:21;6.65;;;3.80;;
41255;SDS011;26989;45.524;10.938;2024-02-26T01:09:48;4.63;;;2.70;;
41255;SDS011;26989;45.524;10.938;2024-02-26T01:12:15;4.32;;;2.65;;
41255;SDS011;26989;45.524;10.938;2024-02-26T01:14:42;4.30;;;2.58;;
41255;SDS011;26989;45.524;10.938;2024-02-26T01:17:09;5.05;;;2.83;;
41255;SDS011;26989;45.524;10.938;2024-02-26T01:19:36;5.97;;;2.38;;
41255;SDS011;26989;45.524;10.938;2024-02-26T01:22:03;7.22;;;3.60;;
41255;SDS011;26989;45.524;10.938;2024-02-26T01:24:29;5.70;;;2.58;;
41255;SDS011;26989;45.524;10.938;2024-02-26T01:26:56;5.85;;;2.83;;
41255;SDS011;26989;45.524;10.938;2024-02-26T01:29:23;4.97;;;2.60;;
41255;SDS011;26989;45.524;10.938;2024-02-26T01:31:50;3.75;;;2.38;;
41255;SDS011;26989;45.524;10.938;2024-02-26T01:34:17;6.47;;;2.88;;
41255;SDS011;26989;45.524;10.938;2024-02-26T01:36:44;4.20;;;2.50;;
41255;SDS011;26989;45.524;10.938;2024-02-26T01:39:12;5.13;;;3.15;;
41255;SDS011;26989;45.524;10.938;2024-02-26T01:41:39;5.40;;;2.80;;
41255;SDS011;26989;45.524;10.938;2024-02-26T01:44:07;5.18;;;3.17;;
41255;SDS011;26989;45.524;10.938;2024-02-26T01:46:34;5.15;;;2.90;;
41255;SDS011;26989;45.524;10.938;2024-02-26T01:49:03;7.43;;;2.60;;
41255;SDS011;26989;45.524;10.938;2024-02-26T01:51:30;4.07;;;2.90;;
41255;SDS011;26989;45.524;10.938;2024-02-26T01:53:59;7.22;;;3.13;;
41255;SDS011;26989;45.524;10.938;2024-02-26T01:56:29;5.97;;;3.28;;
41255;SDS011;26989;45.524;10.938;2024-02-26T01:58:58;5.95;;;3.17;;
41255;SDS011;26989;45.524;10.938;2024-02-26T02:01:25;5.50;;;2.85;;
41255;SDS011;26989;45.524;10.938;2024-02-26T02:03:59;4.97;;;3.25;;
41255;SDS011;26989;45.524;10.938;2024-02-26T02:06:26;3.90;;;3.10;;
41255;SDS011;26989;45.524;10.938;2024-02-26T02:08:57;6.50;;;3.22;;
41255;SDS011;26989;45.524;10.938;2024-02-26T02:11:24;7.78;;;3.80;;
41255;SDS011;26989;45.524;10.938;2024-02-26T02:13:51;5.88;;;4.00;;
41255;SDS011;26989;45.524;10.938;2024-02-26T02:16:17;7.57;;;3.88;;
41255;SDS011;26989;45.524;10.938;2024-02-26T02:18:44;6.50;;;3.45;;
41255;SDS011;26989;45.524;10.938;2024-02-26T02:21:11;6.30;;;3.92;;
41255;SDS011;26989;45.524;10.938;2024-02-26T02:23:38;7.40;;;3.50;;
41255;SDS011;26989;45.524;10.938;2024-02-26T02:26:05;7.65;;;4.60;;
41255;SDS011;26989;45.524;10.938;2024-02-26T02:28:32;7.00;;;3.53;;
41255;SDS011;26989;45.524;10.938;2024-02-26T02:30:59;5.63;;;3.40;;
41255;SDS011;26989;45.524;10.938;2024-02-26T02:33:27;9.25;;;3.40;;
41255;SDS011;26989;45.524;10.938;2024-02-26T02:35:54;6.47;;;3.17;;
41255;SDS011;26989;45.524;10.938;2024-02-26T02:38:21;5.25;;;3.42;;
41255;SDS011;26989;45.524;10.938;2024-02-26T02:40:50;5.22;;;3.35;;
41255;SDS011;26989;45.524;10.938;2024-02-26T02:43:16;5.78;;;3.15;;
41255;SDS011;26989;45.524;10.938;2024-02-26T02:45:43;6.13;;;4.07;;
41255;SDS011;26989;45.524;10.938;2024-02-26T02:48:10;8.02;;;3.60;;
41255;SDS011;26989;45.524;10.938;2024-02-26T02:50:38;8.13;;;5.15;;
41255;SDS011;26989;45.524;10.938;2024-02-26T02:53:05;7.93;;;3.78;;
41255;SDS011;26989;45.524;10.938;2024-02-26T02:55:32;5.78;;;3.60;;
41255;SDS011;26989;45.524;10.938;2024-02-26T02:57:59;6.82;;;3.20;;
41255;SDS011;26989;45.524;10.938;2024-02-26T03:00:26;5.72;;;3.53;;
41255;SDS011;26989;45.524;10.938;2024-02-26T03:02:53;5.32;;;3.53;;
41255;SDS011;26989;45.524;10.938;2024-02-26T03:05:20;5.55;;;3.58;;
41255;SDS011;26989;45.524;10.938;2024-02-26T03:07:47;7.65;;;4.18;;
41255;SDS011;26989;45.524;10.938;2024-02-26T03:10:13;6.75;;;3.47;;
41255;SDS011;26989;45.524;10.938;2024-02-26T03:12:40;9.95;;;3.78;;
41255;SDS011;26989;45.524;10.938;2024-02-26T03:15:07;5.65;;;3.47;;
41255;SDS011;26989;45.524;10.938;2024-02-26T03:17:35;5.13;;;3.63;;
41255;SDS011;26989;45.524;10.938;2024-02-26T03:20:02;6.65;;;4.00;;
41255;SDS011;26989;45.524;10.938;2024-02-26T03:22:31;5.00;;;3.38;;
41255;SDS011;26989;45.524;10.938;2024-02-26T03:24:58;7.53;;;4.53;;
41255;SDS011;26989;45.524;10.938;2024-02-26T03:27:25;6.97;;;3.65;;
41255;SDS011;26989;45.524;10.938;2024-02-26T03:29:52;5.97;;;3.70;;
41255;SDS011;26989;45.524;10.938;2024-02-26T03:32:19;7.97;;;3.90;;
41255;SDS011;26989;45.524;10.938;2024-02-26T03:34:46;5.35;;;3.25;;
41255;SDS011;26989;45.524;10.938;2024-02-26T03:37:13;6.43;;;3.60;;
41255;SDS011;26989;45.524;10.938;2024-02-26T03:39:40;5.45;;;3.15;;
41255;SDS011;26989;45.524;10.938;2024-02-26T03:42:07;6.32;;;3.03;;
41255;SDS011;26989;45.524;10.938;2024-02-26T03:44:33;5.30;;;3.45;;
41255;SDS011;26989;45.524;10.938;2024-02-26T03:47:00;7.57;;;4.60;;
41255;SDS011;26989;45.524;10.938;2024-02-26T03:49:27;7.90;;;3.83;;
41255;SDS011;26989;45.524;10.938;2024-02-26T03:51:54;6.47;;;4.20;;
41255;SDS011;26989;45.524;10.938;2024-02-26T03:54:21;8.75;;;3.92;;
41255;SDS011;26989;45.524;10.938;2024-02-26T03:56:48;5.38;;;3.22;;
41255;SDS011;26989;45.524;10.938;2024-02-26T03:59:15;5.13;;;3.00;;
41255;SDS011;26989;45.524;10.938;2024-02-26T04:01:48;6.18;;;3.10;;
41255;SDS011;26989;45.524;10.938;2024-02-26T04:04:15;5.05;;;3.42;;
41255;SDS011;26989;45.524;10.938;2024-02-26T04:06:44;7.75;;;3.35;;
41255;SDS011;26989;45.524;10.938;2024-02-26T04:09:14;5.40;;;3.05;;
41255;SDS011;26989;45.524;10.938;2024-02-26T04:11:41;5.80;;;3.35;;
41255;SDS011;26989;45.524;10.938;2024-02-26T04:14:09;7.72;;;2.75;;
41255;SDS011;26989;45.524;10.938;2024-02-26T04:16:38;4.20;;;2.72;;
41255;SDS011;26989;45.524;10.938;2024-02-26T04:19:05;5.50;;;2.80;;
41255;SDS011;26989;45.524;10.938;2024-02-26T04:21:33;4.65;;;2.75;;
41255;SDS011;26989;45.524;10.938;2024-02-26T04:24:01;4.20;;;2.22;;
41255;SDS011;26989;45.524;10.938;2024-02-26T04:26:30;4.30;;;2.30;;
41255;SDS011;26989;45.524;10.938;2024-02-26T04:28:57;5.95;;;4.45;;
41255;SDS011;26989;45.524;10.938;2024-02-26T04:31:24;3.85;;;2.58;;
41255;SDS011;26989;45.524;10.938;2024-02-26T04:33:52;4.63;;;2.30;;
41255;SDS011;26989;45.524;10.938;2024-02-26T04:36:19;3.58;;;2.42;;
41255;SDS011;26989;45.524;10.938;2024-02-26T04:38:46;9.60;;;3.55;;
41255;SDS011;26989;45.524;10.938;2024-02-26T04:41:13;6.32;;;2.60;;
41255;SDS011;26989;45.524;10.938;2024-02-26T04:43:40;5.22;;;1.90;;
41255;SDS011;26989;45.524;10.938;2024-02-26T04:46:10;4.93;;;2.88;;
41255;SDS011;26989;45.524;10.938;2024-02-26T04:48:37;4.32;;;2.20;;
41255;SDS011;26989;45.524;10.938;2024-02-26T04:51:05;5.00;;;3.00;;
41255;SDS011;26989;45.524;10.938;2024-02-26T04:53:32;4.18;;;2.20;;
41255;SDS011;26989;45.524;10.938;2024-02-26T04:55:59;7.18;;;2.45;;
41255;SDS011;26989;45.524;10.938;2024-02-26T04:58:26;5.57;;;2.33;;
41255;SDS011;26989;45.524;10.938;2024-02-26T05:00:53;4.85;;;2.67;;
41255;SDS011;26989;45.524;10.938;2024-02-26T05:03:20;5.28;;;2.70;;
41255;SDS011;26989;45.524;10.938;2024-02-26T05:05:47;5.85;;;3.22;;
41255;SDS011;26989;45.524;10.938;2024-02-26T05:08:14;4.38;;;2.42;;
41255;SDS011;26989;45.524;10.938;2024-02-26T05:10:41;6.72;;;2.65;;
41255;SDS011;26989;45.524;10.938;2024-02-26T05:13:09;5.05;;;3.22;;
41255;SDS011;26989;45.524;10.938;2024-02-26T05:15:36;4.38;;;2.70;;
41255;SDS011;26989;45.524;10.938;2024-02-26T05:18:03;3.13;;;2.00;;
41255;SDS011;26989;45.524;10.938;2024-02-26T05:20:31;4.63;;;2.83;;
41255;SDS011;26989;45.524;10.938;2024-02-26T05:23:01;3.55;;;2.08;;
41255;SDS011;26989;45.524;10.938;2024-02-26T05:25:30;4.28;;;2.40;;
41255;SDS011;26989;45.524;10.938;2024-02-26T05:27:57;5.00;;;2.30;;
41255;SDS011;26989;45.524;10.938;2024-02-26T05:30:24;4.47;;;2.45;;
41255;SDS011;26989;45.524;10.938;2024-02-26T05:32:53;3.70;;;2.38;;
41255;SDS011;26989;45.524;10.938;2024-02-26T05:35:20;4.10;;;3.03;;
41255;SDS011;26989;45.524;10.938;2024-02-26T05:37:47;6.50;;;3.97;;
41255;SDS011;26989;45.524;10.938;2024-02-26T05:40:14;4.43;;;2.28;;
41255;SDS011;26989;45.524;10.938;2024-02-26T05:42:41;4.38;;;2.40;;
41255;SDS011;26989;45.524;10.938;2024-02-26T05:45:11;5.90;;;2.83;;
41255;SDS011;26989;45.524;10.938;2024-02-26T05:47:38;4.78;;;3.05;;
41255;SDS011;26989;45.524;10.938;2024-02-26T05:50:09;3.90;;;2.47;;
41255;SDS011;26989;45.524;10.938;2024-02-26T05:52:41;3.63;;;2.58;;
41255;SDS011;26989;45.524;10.938;2024-02-26T05:55:08;6.90;;;2.90;;
41255;SDS011;26989;45.524;10.938;2024-02-26T05:57:35;8.00;;;4.22;;
41255;SDS011;26989;45.524;10.938;2024-02-26T06:00:02;10.07;;;3.78;;
41255;SDS011;26989;45.524;10.938;2024-02-26T06:02:30;5.80;;;3.40;;
41255;SDS011;26989;45.524;10.938;2024-02-26T06:04:57;6.07;;;3.45;;
41255;SDS011;26989;45.524;10.938;2024-02-26T06:07:24;4.53;;;2.90;;
41255;SDS011;26989;45.524;10.938;2024-02-26T06:09:51;7.53;;;3.10;;
41255;SDS011;26989;45.524;10.938;2024-02-26T06:12:18;4.65;;;2.60;;
41255;SDS011;26989;45.524;10.938;2024-02-26T06:14:45;4.85;;;2.90;;
41255;SDS011;26989;45.524;10.938;2024-02-26T06:17:13;6.65;;;3.10;;
41255;SDS011;26989;45.524;10.938;2024-02-26T06:19:41;4.63;;;3.05;;
41255;SDS011;26989;45.524;10.938;2024-02-26T06:22:08;3.88;;;2.42;;
41255;SDS011;26989;45.524;10.938;2024-02-26T06:24:34;7.13;;;4.80;;
41255;SDS011;26989;45.524;10.938;2024-02-26T06:27:01;4.85;;;3.38;;
41255;SDS011;26989;45.524;10.938;2024-02-26T06:29:29;8.30;;;3.13;;
41255;SDS011;26989;45.524;10.938;2024-02-26T06:31:56;6.03;;;3.95;;
41255;SDS011;26989;45.524;10.938;2024-02-26T06:34:23;6.88;;;3.65;;
41255;SDS011;26989;45.524;10.938;2024-02-26T06:36:50;4.07;;;2.83;;
41255;SDS011;26989;45.524;10.938;2024-02-26T06:39:17;6.40;;;3.42;;
41255;SDS011;26989;45.524;10.938;2024-02-26T06:41:44;5.50;;;3.38;;
41255;SDS011;26989;45.524;10.938;2024-02-26T06:44:13;7.53;;;3.90;;
41255;SDS011;26989;45.524;10.938;2024-02-26T06:46:40;8.25;;;3.88;;
41255;SDS011;26989;45.524;10.938;2024-02-26T06:49:07;7.70;;;4.45;;
41255;SDS011;26989;45.524;10.938;2024-02-26T06:51:35;8.80;;;4.03;;
41255;SDS011;26989;45.524;10.938;2024-02-26T06:54:02;7.20;;;4.30;;
41255;SDS011;26989;45.524;10.938;2024-02-26T06:56:28;8.05;;;4.53;;
41255;SDS011;26989;45.524;10.938;2024-02-26T06:58:56;7.40;;;4.57;;
41255;SDS011;26989;45.524;10.938;2024-02-26T07:01:25;8.20;;;4.82;;
41255;SDS011;26989;45.524;10.938;2024-02-26T07:03:52;9.68;;;5.03;;
41255;SDS011;26989;45.524;10.938;2024-02-26T07:06:19;8.85;;;5.97;;
41255;SDS011;26989;45.524;10.938;2024-02-26T07:08:46;9.27;;;5.97;;
41255;SDS011;26989;45.524;10.938;2024-02-26T07:11:13;8.55;;;5.47;;
41255;SDS011;26989;45.524;10.938;2024-02-26T07:13:40;12.77;;;4.93;;
41255;SDS011;26989;45.524;10.938;2024-02-26T07:16:08;12.55;;;6.80;;
41255;SDS011;26989;45.524;10.938;2024-02-26T07:18:37;10.32;;;5.65;;
41255;SDS011;26989;45.524;10.938;2024-02-26T07:21:05;15.10;;;6.03;;
41255;SDS011;26989;45.524;10.938;2024-02-26T07:23:32;13.40;;;6.20;;
41255;SDS011;26989;45.524;10.938;2024-02-26T07:25:59;12.98;;;7.35;;
41255;SDS011;26989;45.524;10.938;2024-02-26T07:28:29;14.00;;;6.43;;
41255;SDS011;26989;45.524;10.938;2024-02-26T07:30:56;12.73;;;7.40;;
41255;SDS011;26989;45.524;10.938;2024-02-26T07:33:24;12.82;;;6.15;;
41255;SDS011;26989;45.524;10.938;2024-02-26T07:35:54;10.55;;;6.35;;
41255;SDS011;26989;45.524;10.938;2024-02-26T07:38:21;9.48;;;6.00;;
41255;SDS011;26989;45.524;10.938;2024-02-26T07:41:14;9.65;;;6.10;;
41255;SDS011;26989;45.524;10.938;2024-02-26T07:43:52;12.20;;;6.47;;
41255;SDS011;26989;45.524;10.938;2024-02-26T07:46:19;10.60;;;6.32;;
41255;SDS011;26989;45.524;10.938;2024-02-26T07:48:50;10.87;;;5.90;;
41255;SDS011;26989;45.524;10.938;2024-02-26T07:51:39;11.75;;;6.15;;
41255;SDS011;26989;45.524;10.938;2024-02-26T07:54:09;12.48;;;6.35;;
41255;SDS011;26989;45.524;10.938;2024-02-26T07:56:36;11.38;;;6.40;;
41255;SDS011;26989;45.524;10.938;2024-02-26T07:59:09;12.30;;;6.07;;
41255;SDS011;26989;45.524;10.938;2024-02-26T08:01:38;9.45;;;6.07;;
41255;SDS011;26989;45.524;10.938;2024-02-26T08:04:29;11.93;;;4.85;;
41255;SDS011;26989;45.524;10.938;2024-02-26T08:07:23;13.57;;;6.95;;
41255;SDS011;26989;45.524;10.938;2024-02-26T08:09:54;10.23;;;6.80;;
41255;SDS011;26989;45.524;10.938;2024-02-26T08:12:21;12.18;;;7.28;;
41255;SDS011;26989;45.524;10.938;2024-02-26T08:14:48;11.30;;;7.40;;
41255;SDS011;26989;45.524;10.938;2024-02-26T08:17:15;12.45;;;6.63;;
41255;SDS011;26989;45.524;10.938;2024-02-26T08:19:44;11.98;;;6.88;;
41255;SDS011;26989;45.524;10.938;2024-02-26T08:22:11;14.80;;;7.00;;
41255;SDS011;26989;45.524;10.938;2024-02-26T08:24:42;15.75;;;7.35;;
41255;SDS011;26989;45.524;10.938;2024-02-26T08:27:23;11.77;;;6.38;;
41255;SDS011;26989;45.524;10.938;2024-02-26T08:29:51;10.18;;;5.80;;
41255;SDS011;26989;45.524;10.938;2024-02-26T08:32:28;12.13;;;5.68;;
41255;SDS011;26989;45.524;10.938;2024-02-26T08:35:01;10.73;;;6.43;;
41255;SDS011;26989;45.524;10.938;2024-02-26T08:37:30;9.40;;;5.45;;
41255;SDS011;26989;45.524;10.938;2024-02-26T08:39:59;7.97;;;5.35;;
41255;SDS011;26989;45.524;10.938;2024-02-26T08:45:12;7.97;;;5.68;;
41255;SDS011;26989;45.524;10.938;2024-02-26T08:47:40;11.05;;;5.93;;
41255;SDS011;26989;45.524;10.938;2024-02-26T08:50:11;13.48;;;6.78;;
41255;SDS011;26989;45.524;10.938;2024-02-26T08:52:38;11.95;;;6.47;;
41255;SDS011;26989;45.524;10.938;2024-02-26T08:55:06;13.05;;;6.15;;
41255;SDS011;26989;45.524;10.938;2024-02-26T08:57:35;10.80;;;5.60;;
41255;SDS011;26989;45.524;10.938;2024-02-26T09:00:02;12.48;;;5.90;;
41255;SDS011;26989;45.524;10.938;2024-02-26T09:02:29;12.27;;;6.20;;
41255;SDS011;26989;45.524;10.938;2024-02-26T09:04:59;12.93;;;6.40;;
41255;SDS011;26989;45.524;10.938;2024-02-26T09:07:26;9.43;;;6.35;;
41255;SDS011;26989;45.524;10.938;2024-02-26T09:09:53;10.88;;;6.13;;
41255;SDS011;26989;45.524;10.938;2024-02-26T09:12:20;13.43;;;6.25;;
41255;SDS011;26989;45.524;10.938;2024-02-26T09:14:48;9.68;;;6.40;;
41255;SDS011;26989;45.524;10.938;2024-02-26T09:17:15;11.10;;;5.85;;
41255;SDS011;26989;45.524;10.938;2024-02-26T09:19:42;11.52;;;6.57;;
41255;SDS011;26989;45.524;10.938;2024-02-26T09:22:10;12.15;;;7.05;;
41255;SDS011;26989;45.524;10.938;2024-02-26T09:24:39;12.57;;;7.68;;
41255;SDS011;26989;45.524;10.938;2024-02-26T09:27:10;12.70;;;6.63;;
41255;SDS011;26989;45.524;10.938;2024-02-26T09:29:43;11.27;;;6.45;;
41255;SDS011;26989;45.524;10.938;2024-02-26T09:32:19;12.63;;;6.95;;
41255;SDS011;26989;45.524;10.938;2024-02-26T09:35:07;10.82;;;6.53;;
41255;SDS011;26989;45.524;10.938;2024-02-26T09:37:35;11.75;;;6.22;;
41255;SDS011;26989;45.524;10.938;2024-02-26T09:40:03;11.38;;;6.43;;
41255;SDS011;26989;45.524;10.938;2024-02-26T09:42:32;11.35;;;7.22;;
41255;SDS011;26989;45.524;10.938;2024-02-26T09:45:01;10.63;;;6.70;;
41255;SDS011;26989;45.524;10.938;2024-02-26T09:47:36;13.95;;;7.45;;
41255;SDS011;26989;45.524;10.938;2024-02-26T09:50:05;18.17;;;8.38;;
41255;SDS011;26989;45.524;10.938;2024-02-26T09:52:37;13.75;;;7.80;;
41255;SDS011;26989;45.524;10.938;2024-02-26T09:55:05;10.63;;;6.80;;
41255;SDS011;26989;45.524;10.938;2024-02-26T09:57:36;16.92;;;7.28;;
41255;SDS011;26989;45.524;10.938;2024-02-26T10:00:04;11.65;;;7.20;;
41255;SDS011;26989;45.524;10.938;2024-02-26T10:02:35;10.63;;;7.18;;
41255;SDS011;26989;45.524;10.938;2024-02-26T10:05:05;17.90;;;11.90;;
41255;SDS011;26989;45.524;10.938;2024-02-26T10:07:37;14.82;;;9.18;;
41255;SDS011;26989;45.524;10.938;2024-02-26T10:10:04;14.85;;;8.73;;
41255;SDS011;26989;45.524;10.938;2024-02-26T10:12:31;13.35;;;8.20;;
41255;SDS011;26989;45.524;10.938;2024-02-26T10:14:59;17.45;;;9.00;;
41255;SDS011;26989;45.524;10.938;2024-02-26T10:17:26;16.85;;;9.43;;
41255;SDS011;26989;45.524;10.938;2024-02-26T10:19:53;14.60;;;8.25;;
41255;SDS011;26989;45.524;10.938;2024-02-26T10:22:23;16.63;;;8.57;;
41255;SDS011;26989;45.524;10.938;2024-02-26T10:24:50;12.20;;;7.90;;
41255;SDS011;26989;45.524;10.938;2024-02-26T10:27:17;16.08;;;8.52;;
41255;SDS011;26989;45.524;10.938;2024-02-26T10:29:45;14.02;;;7.30;;
41255;SDS011;26989;45.524;10.938;2024-02-26T10:32:13;14.63;;;7.20;;
41255;SDS011;26989;45.524;10.938;2024-02-26T10:34:40;13.88;;;7.65;;
41255;SDS011;26989;45.524;10.938;2024-02-26T10:37:08;8.90;;;4.90;;
41255;SDS011;26989;45.524;10.938;2024-02-26T10:39:36;6.82;;;3.88;;
41255;SDS011;26989;45.524;10.938;2024-02-26T10:42:04;8.85;;;3.20;;
41255;SDS011;26989;45.524;10.938;2024-02-26T10:44:36;6.90;;;3.67;;
41255;SDS011;26989;45.524;10.938;2024-02-26T10:47:07;5.60;;;3.13;;
41255;SDS011;26989;45.524;10.938;2024-02-26T10:49:35;3.13;;;1.70;;
41255;SDS011;26989;45.524;10.938;2024-02-26T10:52:03;4.03;;;2.45;;
41255;SDS011;26989;45.524;10.938;2024-02-26T10:54:33;6.95;;;2.15;;
41255;SDS011;26989;45.524;10.938;2024-02-26T10:57:01;3.50;;;2.50;;
41255;SDS011;26989;45.524;10.938;2024-02-26T10:59:30;2.80;;;1.67;;
41255;SDS011;26989;45.524;10.938;2024-02-26T11:01:59;10.32;;;2.88;;
41255;SDS011;26989;45.524;10.938;2024-02-26T11:04:26;7.97;;;5.07;;
41255;SDS011;26989;45.524;10.938;2024-02-26T11:06:56;25.85;;;10.57;;
41255;SDS011;26989;45.524;10.938;2024-02-26T11:09:24;28.40;;;11.35;;
41255;SDS011;26989;45.524;10.938;2024-02-26T11:11:53;3.75;;;2.20;;
41255;SDS011;26989;45.524;10.938;2024-02-26T11:14:21;17.63;;;7.38;;
41255;SDS011;26989;45.524;10.938;2024-02-26T11:16:52;4.72;;;2.33;;
41255;SDS011;26989;45.524;10.938;2024-02-26T11:19:21;3.10;;;1.80;;
41255;SDS011;26989;45.524;10.938;2024-02-26T11:21:51;5.97;;;2.50;;
41255;SDS011;26989;45.524;10.938;2024-02-26T11:24:18;3.70;;;2.25;;
41255;SDS011;26989;45.524;10.938;2024-02-26T11:26:49;4.25;;;2.05;;
41255;SDS011;26989;45.524;10.938;2024-02-26T11:29:27;1.85;;;1.33;;
41255;SDS011;26989;45.524;10.938;2024-02-26T11:32:01;7.75;;;4.15;;
41255;SDS011;26989;45.524;10.938;2024-02-26T11:34:28;1.83;;;1.20;;
41255;SDS011;26989;45.524;10.938;2024-02-26T11:36:56;3.60;;;1.58;;
41255;SDS011;26989;45.524;10.938;2024-02-26T11:39:23;2.72;;;1.65;;
41255;SDS011;26989;45.524;10.938;2024-02-26T11:41:52;2.78;;;1.60;;
41255;SDS011;26989;45.524;10.938;2024-02-26T11:44:29;3.25;;;1.73;;
41255;SDS011;26989;45.524;10.938;2024-02-26T11:46:56;4.25;;;1.23;;
41255;SDS011;26989;45.524;10.938;2024-02-26T11:51:55;5.68;;;2.38;;
41255;SDS011;26989;45.524;10.938;2024-02-26T11:54:39;6.13;;;1.73;;
41255;SDS011;26989;45.524;10.938;2024-02-26T12:02:39;1.77;;;1.33;;
41255;SDS011;26989;45.524;10.938;2024-02-26T12:05:11;2.60;;;1.70;;
41255;SDS011;26989;45.524;10.938;2024-02-26T12:07:47;2.97;;;1.63;;
41255;SDS011;26989;45.524;10.938;2024-02-26T12:10:16;1.30;;;1.08;;
41255;SDS011;26989;45.524;10.938;2024-02-26T12:12:58;1.48;;;1.00;;
41255;SDS011;26989;45.524;10.938;2024-02-26T12:15:38;2.97;;;1.00;;
41255;SDS011;26989;45.524;10.938;2024-02-26T12:18:06;2.10;;;1.30;;
41255;SDS011;26989;45.524;10.938;2024-02-26T12:20:39;1.85;;;1.20;;
41255;SDS011;26989;45.524;10.938;2024-02-26T12:23:06;2.78;;;0.95;;
41255;SDS011;26989;45.524;10.938;2024-02-26T12:25:33;2.33;;;1.20;;
41255;SDS011;26989;45.524;10.938;2024-02-26T12:28:00;1.63;;;0.90;;
41255;SDS011;26989;45.524;10.938;2024-02-26T12:30:27;3.00;;;1.27;;
41255;SDS011;26989;45.524;10.938;2024-02-26T12:32:57;1.85;;;1.10;;
41255;SDS011;26989;45.524;10.938;2024-02-26T12:35:27;3.58;;;2.35;;
41255;SDS011;26989;45.524;10.938;2024-02-26T12:37:57;1.85;;;1.42;;
41255;SDS011;26989;45.524;10.938;2024-02-26T12:40:25;4.28;;;1.40;;
41255;SDS011;26989;45.524;10.938;2024-02-26T12:42:53;2.13;;;1.17;;
41255;SDS011;26989;45.524;10.938;2024-02-26T12:45:21;8.07;;;4.30;;
41255;SDS011;26989;45.524;10.938;2024-02-26T12:47:48;3.65;;;2.15;;
41255;SDS011;26989;45.524;10.938;2024-02-26T12:50:16;1.40;;;1.10;;
41255;SDS011;26989;45.524;10.938;2024-02-26T12:52:44;3.05;;;0.90;;
41255;SDS011;26989;45.524;10.938;2024-02-26T12:55:16;4.20;;;1.08;;
41255;SDS011;26989;45.524;10.938;2024-02-26T12:57:45;1.48;;;1.00;;
41255;SDS011;26989;45.524;10.938;2024-02-26T13:00:16;5.63;;;2.70;;
41255;SDS011;26989;45.524;10.938;2024-02-26T13:02:45;3.58;;;1.55;;
41255;SDS011;26989;45.524;10.938;2024-02-26T13:05:13;2.72;;;1.30;;
41255;SDS011;26989;45.524;10.938;2024-02-26T13:07:42;2.83;;;1.95;;
41255;SDS011;26989;45.524;10.938;2024-02-26T13:12:44;4.72;;;1.42;;
41255;SDS011;26989;45.524;10.938;2024-02-26T13:15:14;3.22;;;2.20;;
41255;SDS011;26989;45.524;10.938;2024-02-26T13:17:46;2.47;;;0.63;;
41255;SDS011;26989;45.524;10.938;2024-02-26T13:23:02;1.67;;;0.75;;
41255;SDS011;26989;45.524;10.938;2024-02-26T13:25:31;2.30;;;0.75;;
41255;SDS011;26989;45.524;10.938;2024-02-26T13:28:06;3.80;;;0.85;;
41255;SDS011;26989;45.524;10.938;2024-02-26T13:30:35;4.28;;;1.00;;
41255;SDS011;26989;45.524;10.938;2024-02-26T13:33:09;2.88;;;1.27;;
41255;SDS011;26989;45.524;10.938;2024-02-26T13:35:40;2.38;;;0.75;;
41255;SDS011;26989;45.524;10.938;2024-02-26T13:38:07;0.70;;;0.70;;
41255;SDS011;26989;45.524;10.938;2024-02-26T13:40:39;1.58;;;0.80;;
41255;SDS011;26989;45.524;10.938;2024-02-26T13:43:07;2.00;;;1.00;;
41255;SDS011;26989;45.524;10.938;2024-02-26T13:45:34;1.23;;;0.70;;
41255;SDS011;26989;45.524;10.938;2024-02-26T13:48:02;1.10;;;0.63;;
41255;SDS011;26989;45.524;10.938;2024-02-26T13:50:31;0.80;;;0.63;;
41255;SDS011;26989;45.524;10.938;2024-02-26T13:52:58;1.83;;;0.90;;
41255;SDS011;26989;45.524;10.938;2024-02-26T13:55:25;1.38;;;0.73;;
41255;SDS011;26989;45.524;10.938;2024-02-26T13:57:54;3.63;;;0.80;;
41255;SDS011;26989;45.524;10.938;2024-02-26T14:00:23;1.52;;;0.73;;
41255;SDS011;26989;45.524;10.938;2024-02-26T14:02:54;0.90;;;0.68;;
41255;SDS011;26989;45.524;10.938;2024-02-26T14:05:23;1.75;;;0.93;;
41255;SDS011;26989;45.524;10.938;2024-02-26T14:07:50;9.35;;;2.50;;
41255;SDS011;26989;45.524;10.938;2024-02-26T14:10:19;3.85;;;2.13;;
41255;SDS011;26989;45.524;10.938;2024-02-26T14:13:00;4.88;;;1.27;;
41255;SDS011;26989;45.524;10.938;2024-02-26T14:15:37;2.88;;;1.75;;
41255;SDS011;26989;45.524;10.938;2024-02-26T14:18:10;1.67;;;1.40;;
41255;SDS011;26989;45.524;10.938;2024-02-26T14:20:40;2.40;;;1.48;;
41255;SDS011;26989;45.524;10.938;2024-02-26T14:26:24;1.17;;;0.80;;
41255;SDS011;26989;45.524;10.938;2024-02-26T14:29:34;1.83;;;1.38;;
41255;SDS011;26989;45.524;10.938;2024-02-26T14:32:22;4.15;;;1.00;;
41255;SDS011;26989;45.524;10.938;2024-02-26T14:34:49;1.17;;;0.80;;
41255;SDS011;26989;45.524;10.938;2024-02-26T14:37:16;0.82;;;0.68;;
41255;SDS011;26989;45.524;10.938;2024-02-26T14:39:43;1.48;;;1.08;;
41255;SDS011;26989;45.524;10.938;2024-02-26T14:42:10;2.55;;;2.10;;
41255;SDS011;26989;45.524;10.938;2024-02-26T14:44:50;1.63;;;0.80;;
41255;SDS011;26989;45.524;10.938;2024-02-26T14:47:20;1.50;;;0.85;;
41255;SDS011;26989;45.524;10.938;2024-02-26T14:49:49;2.30;;;0.85;;
41255;SDS011;26989;45.524;10.938;2024-02-26T14:52:18;1.30;;;1.10;;
41255;SDS011;26989;45.524;10.938;2024-02-26T14:54:48;1.35;;;0.90;;
41255;SDS011;26989;45.524;10.938;2024-02-26T14:57:18;0.52;;;0.50;;
41255;SDS011;26989;45.524;10.938;2024-02-26T14:59:45;2.10;;;0.70;;